Terminal Aerodrome Forecast
Issued by NWS

Home | Current Version | Previous Version | Text Only | Print | Product List | Glossary Off
Versions: 1 2 3 4 5 6 7 8 9 10 11 12 13 14 15 16 17 18 19 20 21 22 23

000
FTUS43 KBIS 272200 AAA
TAFJMS
TAF AMD
KJMS 272209Z 2722/2818 28015G25KT P6SM BKN050
     FM280200 29015KT P6SM OVC015
     FM280800 31014G22KT P6SM VCSH OVC007
     FM281700 31021G30KT P6SM OVC017=

USA.gov is the U.S. government's official web portal to all federal, state and local government web resources and services.